createdAt,value
2019-02-19T00:00:48.516Z,93766.26
2019-02-19T00:03:17.171Z,93771.69
2019-02-19T00:05:45.827Z,93775.13
2019-02-19T00:08:14.350Z,93776.59
2019-02-19T00:10:42.731Z,93772.00
2019-02-19T00:13:11.415Z,93774.58
2019-02-19T00:15:40.210Z,93765.79
2019-02-19T00:18:08.757Z,93774.53
2019-02-19T00:20:37.056Z,93781.26
2019-02-19T00:23:05.667Z,93778.34
2019-02-19T00:25:33.905Z,93781.20
2019-02-19T00:28:02.536Z,93781.62
2019-02-19T00:30:31.122Z,93777.42
2019-02-19T00:32:59.722Z,93773.16
2019-02-19T00:35:27.912Z,93781.92
2019-02-19T00:37:56.180Z,93775.59
2019-02-19T00:40:24.351Z,93774.31
2019-02-19T00:42:52.625Z,93776.75
2019-02-19T00:45:20.760Z,93773.89
2019-02-19T00:47:49.306Z,93768.38
2019-02-19T00:50:16.881Z,93765.81
2019-02-19T00:52:45.414Z,93767.86
2019-02-19T00:55:14.134Z,93766.23
2019-02-19T00:57:42.761Z,93762.94
2019-02-19T01:03:32.110Z,93769.17
2019-02-19T01:05:59.678Z,93768.27
2019-02-19T01:08:27.960Z,93765.37
2019-02-19T01:10:56.544Z,93768.25
2019-02-19T01:13:24.461Z,93766.06
2019-02-19T01:15:52.816Z,93772.02
2019-02-19T01:18:21.000Z,93773.25
2019-02-19T01:20:49.903Z,93772.26
2019-02-19T01:23:18.610Z,93775.19
2019-02-19T01:25:46.741Z,93769.67
2019-02-19T01:28:15.334Z,93774.26
2019-02-19T01:30:43.567Z,93773.80
2019-02-19T01:33:11.090Z,93772.45
2019-02-19T01:35:39.289Z,93769.48
2019-02-19T01:38:07.440Z,93773.67
2019-02-19T01:40:36.051Z,93770.77
2019-02-19T01:43:04.236Z,93770.35
2019-02-19T01:45:34.307Z,93773.18
2019-02-19T01:48:02.676Z,93770.94
2019-02-19T01:50:30.591Z,93773.95
2019-02-19T01:52:58.836Z,93777.68
2019-02-19T01:55:27.119Z,93770.48
2019-02-19T01:57:54.931Z,93774.33
2019-02-19T02:00:23.516Z,93772.20
2019-02-19T02:02:51.800Z,93763.29
2019-02-19T02:05:20.080Z,93767.36
2019-02-19T02:07:48.256Z,93767.70
2019-02-19T02:10:15.838Z,93766.45
2019-02-19T02:12:44.401Z,93768.58
2019-02-19T02:15:12.380Z,93764.73
2019-02-19T02:17:40.970Z,93775.08
2019-02-19T02:20:09.735Z,93777.97
2019-02-19T02:22:38.452Z,93780.06
2019-02-19T02:25:18.654Z,93772.56
2019-02-19T02:27:46.695Z,93779.30
2019-02-19T02:30:14.952Z,93777.30
2019-02-19T02:32:43.461Z,93770.97
2019-02-19T02:35:11.750Z,93770.17
2019-02-19T02:37:40.327Z,93770.51
2019-02-19T02:40:08.617Z,93769.97
2019-02-19T02:42:37.055Z,93761.59
2019-02-19T02:45:04.575Z,93768.75
2019-02-19T02:47:33.084Z,93772.15
2019-02-19T02:50:01.425Z,93768.62
2019-02-19T02:52:29.831Z,93767.82
2019-02-19T02:54:58.315Z,93767.09
2019-02-19T02:57:26.927Z,93773.30
2019-02-19T02:59:54.755Z,93767.44
2019-02-19T03:02:23.150Z,93767.06
2019-02-19T03:04:51.431Z,93763.78
2019-02-19T03:10:26.710Z,93761.53
2019-02-19T03:12:55.155Z,93757.27
2019-02-19T03:15:23.776Z,93762.68
2019-02-19T03:17:52.037Z,93765.03
2019-02-19T03:20:20.719Z,93761.97
2019-02-19T03:22:49.008Z,93763.89
2019-02-19T03:25:16.882Z,93767.11
2019-02-19T03:27:45.054Z,93769.58
2019-02-19T03:30:13.748Z,93766.23
2019-02-19T03:32:42.034Z,93768.69
2019-02-19T03:35:09.906Z,93772.92
2019-02-19T03:37:38.128Z,93775.81
2019-02-19T03:40:07.617Z,93779.56
2019-02-19T03:42:42.396Z,93776.97
2019-02-19T03:45:11.137Z,93782.36
2019-02-19T03:47:39.441Z,93782.34
2019-02-19T03:50:07.721Z,93785.33
2019-02-19T03:52:36.381Z,93781.15
2019-02-19T03:55:44.943Z,93783.70
2019-02-19T03:58:12.759Z,93786.64
2019-02-19T04:00:41.230Z,93786.59
2019-02-19T04:03:09.861Z,93787.75
2019-02-19T04:05:38.508Z,93792.35
2019-02-19T04:08:06.382Z,93791.84
2019-02-19T04:10:34.634Z,93793.05
2019-02-19T04:13:03.257Z,93795.13
2019-02-19T04:15:31.853Z,93794.91
2019-02-19T04:18:00.458Z,93789.62
2019-02-19T04:20:29.287Z,93791.47
2019-02-19T04:22:56.812Z,93793.28
2019-02-19T04:25:25.390Z,93792.62
2019-02-19T04:27:53.560Z,93785.55
2019-02-19T04:30:21.446Z,93783.16
2019-02-19T04:32:49.970Z,93792.75
2019-02-19T04:35:18.306Z,93792.37
2019-02-19T04:37:46.893Z,93794.97
2019-02-19T04:40:15.647Z,93787.05
2019-02-19T04:42:43.977Z,93790.36
2019-02-19T04:45:12.061Z,93788.34
2019-02-19T04:47:40.845Z,93787.13
2019-02-19T04:50:09.148Z,93796.30
2019-02-19T04:52:37.827Z,93791.58
2019-02-19T04:55:06.653Z,93788.22
2019-02-19T04:57:35.305Z,93786.51
2019-02-19T05:00:03.273Z,93790.78
2019-02-19T05:02:31.972Z,93788.64
2019-02-19T05:05:00.665Z,93789.31
2019-02-19T05:07:29.257Z,93793.08
2019-02-19T05:09:57.958Z,93797.56
2019-02-19T05:12:25.854Z,93801.23
2019-02-19T05:14:54.316Z,93803.33
2019-02-19T05:17:22.829Z,93801.61
2019-02-19T05:19:51.166Z,93799.56
2019-02-19T05:22:19.726Z,93798.30
2019-02-19T05:24:48.488Z,93794.54
2019-02-19T05:27:17.035Z,93794.42
2019-02-19T05:29:45.322Z,93791.82
2019-02-19T05:32:14.017Z,93802.95
2019-02-19T05:34:42.597Z,93799.98
2019-02-19T05:37:11.244Z,93799.06
2019-02-19T05:39:39.886Z,93798.77
2019-02-19T05:42:08.576Z,93795.88
2019-02-19T05:44:37.171Z,93797.98
2019-02-19T05:47:05.109Z,93799.00
2019-02-19T05:49:33.455Z,93799.23
2019-02-19T05:52:01.982Z,93798.68
2019-02-19T05:54:30.323Z,93800.67
2019-02-19T05:56:58.596Z,93795.23
2019-02-19T05:59:27.267Z,93793.09
2019-02-19T06:01:55.642Z,93798.52
2019-02-19T06:04:23.946Z,93793.55
2019-02-19T06:06:52.531Z,93789.05
2019-02-19T06:09:20.141Z,93790.81
2019-02-19T06:11:48.360Z,93794.58
2019-02-19T06:14:16.998Z,93802.44
2019-02-19T06:16:45.611Z,93800.62
2019-02-19T06:19:13.824Z,93803.08
2019-02-19T06:21:41.623Z,93800.57
2019-02-19T06:24:10.309Z,93809.08
2019-02-19T06:26:38.990Z,93807.05
2019-02-19T06:29:07.591Z,93812.63
2019-02-19T06:31:35.872Z,93815.66
2019-02-19T06:34:04.239Z,93827.84
2019-02-19T06:36:32.508Z,93829.18
2019-02-19T06:39:00.791Z,93830.08
2019-02-19T06:41:29.376Z,93831.84
2019-02-19T06:43:57.663Z,93831.56
2019-02-19T06:46:26.058Z,93832.99
2019-02-19T06:48:54.756Z,93834.75
2019-02-19T06:51:22.927Z,93833.21
2019-02-19T06:53:51.290Z,93835.55
2019-02-19T06:56:19.791Z,93837.88
2019-02-19T06:58:48.058Z,93841.86
2019-02-19T07:04:18.991Z,93830.89
2019-02-19T07:06:46.923Z,93834.31
2019-02-19T07:09:15.166Z,93830.53
2019-02-19T07:11:43.408Z,93831.44
2019-02-19T07:14:11.657Z,93827.72
2019-02-19T07:16:39.525Z,93828.24
2019-02-19T07:19:08.183Z,93830.02
2019-02-19T07:21:36.502Z,93828.00
2019-02-19T07:24:04.829Z,93831.89
2019-02-19T07:26:40.197Z,93827.77
2019-02-19T07:29:08.749Z,93828.28
2019-02-19T07:31:37.017Z,93828.41
2019-02-19T07:34:05.346Z,93827.25
2019-02-19T07:36:33.259Z,93828.54
2019-02-19T07:39:01.998Z,93828.14
2019-02-19T07:41:29.824Z,93835.77
2019-02-19T07:43:58.290Z,93836.66
2019-02-19T07:46:26.166Z,93829.56
2019-02-19T07:48:54.763Z,93827.03
2019-02-19T07:51:22.636Z,93830.81
2019-02-19T07:53:51.368Z,93824.88
2019-02-19T07:56:20.017Z,93828.67
2019-02-19T07:58:47.983Z,93821.49
2019-02-19T08:01:16.681Z,93832.46
2019-02-19T08:03:45.366Z,93826.97
2019-02-19T08:06:13.652Z,93827.78
2019-02-19T08:08:41.531Z,93828.61
2019-02-19T08:11:10.208Z,93826.08
2019-02-19T08:13:38.557Z,93828.61
2019-02-19T08:16:06.842Z,93823.94
2019-02-19T08:18:35.058Z,93826.47
2019-02-19T08:21:03.456Z,93823.91
2019-02-19T08:23:31.828Z,93828.09
2019-02-19T08:26:00.121Z,93827.69
2019-02-19T08:28:28.493Z,93837.38
2019-02-19T08:30:57.083Z,93834.02
2019-02-19T08:33:25.327Z,93831.84
2019-02-19T08:35:53.661Z,93836.35
2019-02-19T08:38:21.883Z,93841.75
2019-02-19T08:40:50.536Z,93836.91
2019-02-19T08:43:19.367Z,93841.41
2019-02-19T08:45:48.048Z,93841.34
2019-02-19T08:48:16.220Z,93835.20
2019-02-19T08:50:44.357Z,93844.58
2019-02-19T08:53:13.053Z,93844.67
2019-02-19T08:55:40.973Z,93849.83
2019-02-19T08:58:09.683Z,93860.39
2019-02-19T09:00:38.602Z,93858.26
2019-02-19T09:03:06.823Z,93851.42
2019-02-19T09:05:35.072Z,93855.61
2019-02-19T09:08:03.459Z,93854.75
2019-02-19T09:10:31.762Z,93850.38
2019-02-19T09:13:00.122Z,93854.03
2019-02-19T09:15:28.090Z,93853.05
2019-02-19T09:17:55.712Z,93855.09
2019-02-19T09:20:24.435Z,93858.41
2019-02-19T09:22:52.014Z,93863.67
2019-02-19T09:25:20.564Z,93856.58
2019-02-19T09:27:48.808Z,93860.92
2019-02-19T09:30:17.382Z,93859.97
2019-02-19T09:32:44.854Z,93860.26
2019-02-19T09:35:13.495Z,93862.02
2019-02-19T09:37:41.844Z,93853.22
2019-02-19T09:40:09.892Z,93856.21
2019-02-19T09:42:38.617Z,93850.79
2019-02-19T09:45:07.696Z,93855.92
2019-02-19T09:47:36.220Z,93845.34
2019-02-19T09:50:04.052Z,93847.20
2019-02-19T09:52:31.928Z,93838.49
2019-02-19T09:55:00.583Z,93838.14
2019-02-19T09:57:28.807Z,93841.13
2019-02-19T09:59:56.788Z,93849.55
2019-02-19T10:02:25.563Z,93842.39
2019-02-19T10:04:54.215Z,93846.61
2019-02-19T10:07:22.474Z,93850.80
2019-02-19T10:09:50.995Z,93841.66
2019-02-19T10:12:19.227Z,93850.42
2019-02-19T10:14:47.501Z,93847.48
2019-02-19T10:17:15.528Z,93852.55
2019-02-19T10:19:55.525Z,93856.34
2019-02-19T10:22:23.704Z,93851.83
2019-02-19T10:24:52.486Z,93852.78
2019-02-19T10:27:28.651Z,93858.48
2019-02-19T10:29:56.243Z,93861.52
2019-02-19T10:32:24.596Z,93856.51
2019-02-19T10:34:52.881Z,93854.67
2019-02-19T10:37:21.677Z,93853.14
2019-02-19T10:39:49.839Z,93849.34
2019-02-19T10:42:19.034Z,93852.09
2019-02-19T10:44:47.676Z,93855.77
2019-02-19T10:47:15.625Z,93869.02
2019-02-19T10:49:43.805Z,93861.28
2019-02-19T10:52:12.156Z,93850.21
2019-02-19T10:54:40.488Z,93851.61
2019-02-19T10:57:09.192Z,93857.53
2019-02-19T10:59:37.463Z,93854.58
2019-02-19T11:02:05.723Z,93854.00
2019-02-19T11:04:34.058Z,93849.55
2019-02-19T11:07:02.609Z,93843.78
2019-02-19T11:09:30.498Z,93839.16
2019-02-19T11:11:58.445Z,93843.68
2019-02-19T11:14:26.877Z,93838.91
2019-02-19T11:16:55.192Z,93832.51
2019-02-19T11:19:23.906Z,93833.51
2019-02-19T11:21:52.703Z,93830.69
2019-02-19T11:24:21.382Z,93823.25
2019-02-19T11:26:49.782Z,93826.13
2019-02-19T11:29:18.403Z,93821.58
2019-02-19T11:31:47.014Z,93824.39
2019-02-19T11:34:15.685Z,93833.65
2019-02-19T11:36:43.656Z,93840.88
2019-02-19T11:39:52.336Z,93832.55
2019-02-19T11:42:20.698Z,93836.42
2019-02-19T11:44:49.210Z,93828.70
2019-02-19T11:47:26.303Z,93827.22
2019-02-19T11:49:54.363Z,93818.34
2019-02-19T11:52:22.271Z,93818.30
2019-02-19T11:54:50.613Z,93819.84
2019-02-19T11:57:18.477Z,93817.58
2019-02-19T11:59:46.706Z,93820.86
2019-02-19T12:02:16.167Z,93812.91
2019-02-19T12:04:44.680Z,93808.34
2019-02-19T12:07:13.386Z,93814.63
2019-02-19T12:09:40.913Z,93807.69
2019-02-19T12:12:09.526Z,93817.28
2019-02-19T12:14:37.883Z,93812.07
2019-02-19T12:17:06.073Z,93807.84
2019-02-19T12:19:34.248Z,93808.76
2019-02-19T12:22:02.838Z,93823.85
2019-02-19T12:24:31.438Z,93816.55
2019-02-19T12:27:00.314Z,93808.58
2019-02-19T12:29:28.278Z,93806.66
2019-02-19T12:31:56.639Z,93803.33
2019-02-19T12:34:25.214Z,93801.53
2019-02-19T12:40:00.823Z,93797.00
2019-02-19T12:42:29.417Z,93797.67
2019-02-19T12:44:57.777Z,93794.26
2019-02-19T12:47:26.323Z,93795.87
2019-02-19T12:49:54.249Z,93805.19
2019-02-19T12:55:03.885Z,93799.41
2019-02-19T12:57:32.426Z,93795.24
2019-02-19T13:00:00.689Z,93801.34
2019-02-19T13:02:28.983Z,93804.88
2019-02-19T13:04:57.068Z,93798.46
2019-02-19T13:07:25.023Z,93796.80
2019-02-19T13:09:53.302Z,93807.07
2019-02-19T13:12:21.609Z,93801.66
2019-02-19T13:14:49.463Z,93800.40
2019-02-19T13:17:17.677Z,93802.13
2019-02-19T13:19:46.337Z,93800.64
2019-02-19T13:22:13.912Z,93796.19
2019-02-19T13:24:43.087Z,93794.11
2019-02-19T13:27:18.134Z,93783.59
2019-02-19T13:29:46.417Z,93787.39
2019-02-19T13:32:14.699Z,93782.13
2019-02-19T13:34:43.004Z,93775.31
2019-02-19T13:37:11.182Z,93779.56
2019-02-19T13:39:39.863Z,93781.14
2019-02-19T13:42:07.844Z,93780.19
2019-02-19T13:44:36.293Z,93777.32
2019-02-19T13:47:04.608Z,93779.27
2019-02-19T13:49:32.876Z,93781.08
2019-02-19T13:55:23.091Z,93787.94
2019-02-19T13:57:51.408Z,93792.39
2019-02-19T14:00:21.271Z,93792.62
2019-02-19T14:02:49.864Z,93800.09
2019-02-19T14:05:18.101Z,93799.59
2019-02-19T14:07:46.081Z,93805.53
2019-02-19T14:10:14.303Z,93820.78
2019-02-19T14:12:42.096Z,93816.79
2019-02-19T14:15:29.575Z,93813.66
2019-02-19T14:21:10.275Z,93814.61
2019-02-19T14:23:57.992Z,93818.63
2019-02-19T14:26:45.083Z,93812.84
2019-02-19T14:29:32.069Z,93809.20
2019-02-19T14:32:19.397Z,93814.11
2019-02-19T14:35:07.355Z,93815.03
2019-02-19T14:37:54.741Z,93811.63
2019-02-19T14:40:54.288Z,93820.50
2019-02-19T14:43:41.777Z,93826.70
2019-02-19T14:46:29.224Z,93828.00
2019-02-19T14:49:16.971Z,93829.61
2019-02-19T14:52:04.886Z,93825.92
2019-02-19T14:54:52.265Z,93824.10
2019-02-19T14:57:40.022Z,93823.82
2019-02-19T15:00:27.668Z,93818.69
2019-02-19T15:03:15.559Z,93816.59
2019-02-19T15:05:53.668Z,93819.48
2019-02-19T15:08:40.624Z,93820.78
2019-02-19T15:11:28.059Z,93823.62
2019-02-19T15:14:15.414Z,93824.26
2019-02-19T15:17:02.828Z,93824.02
2019-02-19T15:19:50.626Z,93823.67
2019-02-19T15:22:37.727Z,93825.83
2019-02-19T15:25:25.339Z,93828.16
2019-02-19T15:28:10.105Z,93837.27
2019-02-19T15:30:57.672Z,93828.94
2019-02-19T15:33:36.032Z,93830.66
2019-02-19T15:36:23.501Z,93830.45
2019-02-19T15:39:11.304Z,93826.25
2019-02-19T15:41:58.750Z,93824.20
2019-02-19T15:44:35.768Z,93822.67
2019-02-19T15:47:23.540Z,93824.69
2019-02-19T15:50:11.314Z,93827.84
2019-02-19T15:52:58.686Z,93834.31
2019-02-19T15:55:46.405Z,93823.47
2019-02-19T15:58:34.923Z,93836.36
2019-02-19T16:01:22.779Z,93839.19
2019-02-19T16:04:09.555Z,93834.59
2019-02-19T16:06:56.760Z,93833.71
2019-02-19T16:09:32.327Z,93829.48
2019-02-19T16:12:19.401Z,93830.74
2019-02-19T16:15:07.160Z,93829.38
2019-02-19T16:17:54.603Z,93829.75
2019-02-19T16:20:41.960Z,93830.64
2019-02-19T16:23:28.996Z,93825.99
2019-02-19T16:26:18.677Z,93828.22
2019-02-19T16:29:13.092Z,93839.00
2019-02-19T16:32:00.516Z,93834.89
2019-02-19T16:34:47.909Z,93835.02
2019-02-19T16:37:35.676Z,93837.41
2019-02-19T16:40:42.437Z,93831.87
2019-02-19T16:43:29.519Z,93840.31
2019-02-19T16:46:17.060Z,93837.52
2019-02-19T16:49:04.962Z,93840.80
2019-02-19T16:51:52.640Z,93834.75
2019-02-19T16:54:40.134Z,93837.77
2019-02-19T16:57:27.207Z,93842.41
2019-02-19T17:00:06.157Z,93848.97
2019-02-19T17:02:53.171Z,93852.45
2019-02-19T17:05:42.559Z,93849.47
2019-02-19T17:08:37.484Z,93856.28
2019-02-19T17:11:25.060Z,93858.82
2019-02-19T17:14:12.419Z,93856.34
2019-02-19T17:16:48.305Z,93850.84
2019-02-19T17:19:36.037Z,93860.41
2019-02-19T17:22:23.870Z,93860.12
2019-02-19T17:25:11.769Z,93865.56
2019-02-19T17:27:58.926Z,93865.17
2019-02-19T17:33:48.126Z,93875.52
2019-02-19T17:36:21.794Z,93877.80
2019-02-19T17:38:55.492Z,93877.36
2019-02-19T17:41:29.681Z,93884.17
2019-02-19T17:44:06.620Z,93882.42
2019-02-19T17:46:54.390Z,93879.19
2019-02-19T17:49:42.157Z,93890.59
2019-02-19T17:52:29.535Z,93899.41
2019-02-19T17:55:16.542Z,93895.64
2019-02-19T17:58:03.913Z,93902.30
2019-02-19T18:01:10.648Z,93906.03
2019-02-19T18:03:45.068Z,93908.66
2019-02-19T18:06:32.401Z,93908.52
2019-02-19T18:09:19.992Z,93906.80
2019-02-19T18:11:53.900Z,93922.05
2019-02-19T18:14:41.333Z,93915.23
2019-02-19T18:17:29.099Z,93911.17
2019-02-19T18:20:09.201Z,93908.97
2019-02-19T18:22:37.886Z,93913.47
2019-02-19T18:25:05.609Z,93912.83
2019-02-19T18:27:33.222Z,93914.94
2019-02-19T18:30:01.830Z,93912.04
2019-02-19T18:32:30.243Z,93917.09
2019-02-19T18:34:58.932Z,93911.56
2019-02-19T18:37:27.578Z,93918.36
2019-02-19T18:39:55.980Z,93917.83
2019-02-19T18:42:24.228Z,93913.75
2019-02-19T18:44:52.996Z,93912.13
2019-02-19T18:47:21.320Z,93910.72
2019-02-19T18:49:49.926Z,93912.62
2019-02-19T18:52:18.201Z,93913.98
2019-02-19T18:54:46.727Z,93922.11
2019-02-19T18:57:15.221Z,93925.92
2019-02-19T18:59:43.161Z,93928.17
2019-02-19T19:02:11.752Z,93929.65
2019-02-19T19:04:40.226Z,93931.52
2019-02-19T19:07:08.800Z,93929.46
2019-02-19T19:09:37.310Z,93936.66
2019-02-19T19:12:05.488Z,93933.59
2019-02-19T19:14:33.871Z,93927.06
2019-02-19T19:17:02.183Z,93923.72
2019-02-19T19:19:30.233Z,93926.35
2019-02-19T19:21:58.553Z,93933.07
2019-02-19T19:24:27.009Z,93928.50
2019-02-19T19:26:55.324Z,93936.09
2019-02-19T19:29:23.915Z,93933.67
2019-02-19T19:31:52.470Z,93934.30
2019-02-19T19:34:20.330Z,93936.05
2019-02-19T19:36:48.726Z,93936.92
2019-02-19T19:39:16.980Z,93933.26
2019-02-19T19:41:45.756Z,93936.34
2019-02-19T19:44:14.050Z,93937.25
2019-02-19T19:46:42.375Z,93940.27
2019-02-19T19:49:10.963Z,93938.25
2019-02-19T19:51:39.447Z,93938.75
2019-02-19T19:54:08.197Z,93936.74
2019-02-19T19:56:36.761Z,93938.47
2019-02-19T19:59:05.531Z,93938.56
2019-02-19T20:01:33.120Z,93943.36
2019-02-19T20:04:01.973Z,93942.60
2019-02-19T20:06:30.234Z,93947.25
2019-02-19T20:08:58.461Z,93951.98
2019-02-19T20:11:26.776Z,93951.60
2019-02-19T20:13:54.706Z,93961.73
2019-02-19T20:16:23.578Z,93957.52
2019-02-19T20:18:52.138Z,93960.92
2019-02-19T20:21:26.523Z,93964.75
2019-02-19T20:23:56.616Z,93960.53
2019-02-19T20:26:25.460Z,93958.45
2019-02-19T20:28:54.097Z,93964.82
2019-02-19T20:31:22.488Z,93964.39
2019-02-19T20:33:50.783Z,93966.17
2019-02-19T20:36:19.114Z,93970.65
2019-02-19T20:38:47.006Z,93975.67
2019-02-19T20:41:15.705Z,93971.11
2019-02-19T20:43:44.043Z,93976.73
2019-02-19T20:46:12.708Z,93978.95
2019-02-19T20:48:40.537Z,93977.33
2019-02-19T20:51:09.165Z,93976.54
2019-02-19T20:53:37.850Z,93977.43
2019-02-19T20:56:05.659Z,93978.28
2019-02-19T20:58:34.234Z,93982.97
2019-02-19T21:01:13.966Z,93976.23
2019-02-19T21:03:44.092Z,93975.84
2019-02-19T21:06:12.482Z,93976.75
2019-02-19T21:08:40.781Z,93981.45
2019-02-19T21:11:15.772Z,93985.32
2019-02-19T21:13:44.043Z,93990.45
2019-02-19T21:16:12.395Z,93989.23
2019-02-19T21:18:40.371Z,93983.13
2019-02-19T21:21:09.035Z,93987.82
2019-02-19T21:23:37.331Z,93984.95
2019-02-19T21:26:06.075Z,93985.89
2019-02-19T21:28:34.725Z,93989.77
2019-02-19T21:31:02.989Z,93991.92
2019-02-19T21:33:30.858Z,93988.59
2019-02-19T21:35:58.850Z,93982.70
2019-02-19T21:38:27.184Z,93995.02
2019-02-19T21:40:55.094Z,93994.51
2019-02-19T21:43:22.931Z,93993.30
2019-02-19T21:45:51.224Z,93994.57
2019-02-19T21:48:19.500Z,93991.62
2019-02-19T21:50:48.073Z,93992.47
2019-02-19T21:53:16.144Z,93993.73
2019-02-19T21:55:44.420Z,93993.70
2019-02-19T21:58:12.703Z,93996.20
2019-02-19T22:00:41.301Z,93988.63
2019-02-19T22:03:09.575Z,93987.21
2019-02-19T22:05:37.756Z,93994.42
2019-02-19T22:08:06.519Z,93995.27
2019-02-19T22:10:34.735Z,93994.42
2019-02-19T22:13:03.236Z,93992.30
2019-02-19T22:15:31.942Z,93996.98
2019-02-19T22:17:59.895Z,93992.75
2019-02-19T22:20:47.365Z,93998.25
2019-02-19T22:23:16.037Z,93995.31
2019-02-19T22:25:44.290Z,93996.99
2019-02-19T22:28:12.554Z,94000.73
2019-02-19T22:30:41.147Z,93997.38
2019-02-19T22:33:09.365Z,94002.87
2019-02-19T22:35:37.916Z,94005.33
2019-02-19T22:38:25.223Z,93998.97
2019-02-19T22:41:12.465Z,94001.39
2019-02-19T22:43:41.095Z,94001.47
2019-02-19T22:46:09.329Z,94003.53
2019-02-19T22:48:37.680Z,94001.35
2019-02-19T22:51:05.985Z,93995.78
2019-02-19T22:53:53.704Z,94001.75
2019-02-19T22:56:25.464Z,93992.00
2019-02-19T22:58:53.739Z,93999.28
2019-02-19T23:01:41.582Z,94003.58
2019-02-19T23:04:09.136Z,94003.20
2019-02-19T23:06:37.455Z,94005.78
2019-02-19T23:09:06.216Z,94006.12
2019-02-19T23:11:34.913Z,94006.08
2019-02-19T23:14:03.186Z,93997.16
2019-02-19T23:16:31.413Z,93998.79
2019-02-19T23:19:00.003Z,93999.22
2019-02-19T23:21:28.504Z,93997.09
2019-02-19T23:23:56.781Z,94003.88
2019-02-19T23:26:25.021Z,94002.13
2019-02-19T23:28:52.991Z,93998.71
2019-02-19T23:31:20.772Z,93995.31
2019-02-19T23:33:49.286Z,93985.63
2019-02-19T23:36:36.944Z,94000.45
2019-02-19T23:39:05.996Z,93993.76
2019-02-19T23:41:34.305Z,93990.85
2019-02-19T23:44:02.851Z,93987.17
2019-02-19T23:46:31.395Z,93990.72
2019-02-19T23:48:59.689Z,93987.39
2019-02-19T23:51:27.579Z,93997.13
2019-02-19T23:53:55.862Z,93995.85
2019-02-19T23:56:24.050Z,93994.17
2019-02-19T23:58:52.560Z,93992.91
